createdAt,value
2022-12-11T00:00:49.183Z,101324.66
2022-12-11T00:02:50.744Z,101324.66
2022-12-11T00:04:52.213Z,101322.03
2022-12-11T00:06:53.789Z,101322.03
2022-12-11T00:08:55.787Z,101313.41
2022-12-11T00:10:57.241Z,101321.19
2022-12-11T00:12:58.760Z,101318.63
2022-12-11T00:15:00.196Z,101317.75
2022-12-11T00:17:01.695Z,101312.50
2022-12-11T00:19:03.315Z,101306.47
2022-12-11T00:21:06.895Z,101304.75
2022-12-11T00:23:08.366Z,101307.41
2022-12-11T00:25:10.334Z,101308.34
2022-12-11T00:27:11.996Z,101305.75
2022-12-11T00:29:14.686Z,101303.09
2022-12-11T00:31:18.150Z,101303.94
2022-12-11T00:33:19.640Z,101309.88
2022-12-11T00:35:21.134Z,101301.94
2022-12-11T00:37:22.632Z,101307.97
2022-12-11T00:39:24.119Z,101296.75
2022-12-11T00:41:25.586Z,101298.56
2022-12-11T00:43:27.080Z,101300.31
2022-12-11T00:45:28.611Z,101304.66
2022-12-11T00:47:30.058Z,101300.38
2022-12-11T00:49:31.598Z,101300.38
2022-12-11T00:51:33.402Z,101300.34
2022-12-11T00:53:34.952Z,101309.84
2022-12-11T00:55:37.826Z,101302.06
2022-12-11T00:57:39.395Z,101301.00
2022-12-11T00:59:40.879Z,101307.94
2022-12-11T01:01:42.552Z,101302.78
2022-12-11T01:03:44.835Z,101301.94
2022-12-11T01:05:54.199Z,101310.66
2022-12-11T01:07:55.723Z,101318.47
2022-12-11T01:10:15.931Z,101312.47
2022-12-11T01:12:17.460Z,101321.13
2022-12-11T01:14:19.209Z,101317.63
2022-12-11T01:16:20.776Z,101317.56
2022-12-11T01:18:22.504Z,101313.25
2022-12-11T01:20:26.200Z,101318.47
2022-12-11T01:22:27.649Z,101320.22
2022-12-11T01:24:29.101Z,101317.63
2022-12-11T01:26:30.800Z,101319.34
2022-12-11T01:28:32.274Z,101317.59
2022-12-11T01:30:34.563Z,101318.41
2022-12-11T01:32:36.815Z,101320.16
2022-12-11T01:34:38.632Z,101308.91
2022-12-11T01:36:40.084Z,101312.38
2022-12-11T01:38:41.915Z,101314.13
2022-12-11T01:40:51.219Z,101313.28
2022-12-11T01:42:52.699Z,101319.38
2022-12-11T01:45:15.766Z,101325.47
2022-12-11T01:47:17.435Z,101321.97
2022-12-11T01:49:21.887Z,101328.00
2022-12-11T01:51:24.366Z,101321.97
2022-12-11T01:53:31.183Z,101326.31
2022-12-11T01:55:33.917Z,101322.88
2022-12-11T01:57:39.781Z,101320.25
2022-12-11T01:59:44.626Z,101316.78
2022-12-11T02:01:46.019Z,101309.84
2022-12-11T02:03:48.039Z,101305.53
2022-12-11T02:05:49.947Z,101302.88
2022-12-11T02:07:58.684Z,101304.59
2022-12-11T02:10:00.040Z,101304.50
2022-12-11T02:12:10.786Z,101308.72
2022-12-11T02:14:17.928Z,101306.94
2022-12-11T02:16:35.852Z,101311.25
2022-12-11T02:18:53.800Z,101312.19
2022-12-11T02:21:18.851Z,101310.50
2022-12-11T02:23:39.433Z,101309.66
2022-12-11T02:26:04.014Z,101314.88
2022-12-11T02:28:08.127Z,101312.25
2022-12-11T02:30:13.858Z,101312.25
2022-12-11T02:32:23.306Z,101306.19
2022-12-11T02:34:30.648Z,101306.19
2022-12-11T02:36:38.086Z,101310.53
2022-12-11T02:38:43.010Z,101304.50
2022-12-11T02:40:46.943Z,101306.19
2022-12-11T02:42:49.849Z,101308.72
2022-12-11T02:44:54.411Z,101304.47
2022-12-11T02:46:58.382Z,101295.84
2022-12-11T02:49:01.649Z,101298.47
2022-12-11T02:51:06.833Z,101295.91
2022-12-11T02:53:12.715Z,101298.56
2022-12-11T02:55:16.370Z,101295.03
2022-12-11T02:57:42.136Z,101289.81
2022-12-11T02:59:45.396Z,101290.69
2022-12-11T03:01:47.329Z,101288.97
2022-12-11T03:03:49.184Z,101287.25
2022-12-11T03:05:50.922Z,101282.03
2022-12-11T03:07:52.508Z,101281.16
2022-12-11T03:09:54.250Z,101288.94
2022-12-11T03:11:55.809Z,101282.06
2022-12-11T03:13:57.537Z,101278.63
2022-12-11T03:16:21.824Z,101276.09
2022-12-11T03:18:44.248Z,101276.09
2022-12-11T03:20:52.003Z,101286.44
2022-12-11T03:23:22.054Z,101275.16
2022-12-11T03:25:31.217Z,101282.06
2022-12-11T03:27:46.162Z,101275.13
2022-12-11T03:29:57.196Z,101279.44
2022-12-11T03:32:09.379Z,101282.88
2022-12-11T03:34:18.069Z,101283.75
2022-12-11T03:36:25.438Z,101276.81
2022-12-11T03:38:53.215Z,101278.53
2022-12-11T03:40:58.748Z,101271.59
2022-12-11T03:43:00.673Z,101272.47
2022-12-11T03:45:04.930Z,101269.00
2022-12-11T03:47:08.438Z,101270.72
2022-12-11T03:49:27.930Z,101268.97
2022-12-11T03:51:32.526Z,101271.47
2022-12-11T03:53:38.565Z,101267.00
2022-12-11T03:55:41.542Z,101270.44
2022-12-11T03:57:43.598Z,101275.66
2022-12-11T03:59:45.325Z,101266.19
2022-12-11T04:01:46.836Z,101269.72
2022-12-11T04:03:48.341Z,101271.56
2022-12-11T04:05:52.888Z,101275.06
2022-12-11T04:07:54.361Z,101276.81
2022-12-11T04:09:55.809Z,101272.50
2022-12-11T04:11:57.257Z,101275.94
2022-12-11T04:14:17.285Z,101283.69
2022-12-11T04:16:18.763Z,101280.03
2022-12-11T04:18:38.477Z,101284.34
2022-12-11T04:20:58.173Z,101283.50
2022-12-11T04:23:18.454Z,101287.03
2022-12-11T04:25:19.903Z,101281.78
2022-12-11T04:27:47.443Z,101287.03
2022-12-11T04:29:48.868Z,101280.19
2022-12-11T04:31:50.743Z,101281.94
2022-12-11T04:33:52.268Z,101285.41
2022-12-11T04:35:53.853Z,101284.50
2022-12-11T04:37:55.331Z,101286.09
2022-12-11T04:39:56.768Z,101285.22
2022-12-11T04:41:58.214Z,101279.16
2022-12-11T04:43:59.667Z,101287.75
2022-12-11T04:46:14.877Z,101283.44
2022-12-11T04:48:16.351Z,101285.19
2022-12-11T04:50:17.983Z,101283.41
2022-12-11T04:52:19.482Z,101281.69
2022-12-11T04:54:20.916Z,101285.19
2022-12-11T04:56:22.413Z,101283.50
2022-12-11T04:58:25.182Z,101280.00
2022-12-11T05:00:27.185Z,101284.22
2022-12-11T05:02:28.682Z,101284.22
2022-12-11T05:04:34.807Z,101284.22
2022-12-11T05:06:36.309Z,101286.63
2022-12-11T05:08:40.495Z,101284.06
2022-12-11T05:10:47.097Z,101282.44
2022-12-11T05:12:51.394Z,101280.66
2022-12-11T05:14:53.601Z,101274.47
2022-12-11T05:16:55.035Z,101270.19
2022-12-11T05:18:56.475Z,101291.03
2022-12-11T05:21:00.342Z,101275.59
2022-12-11T05:23:02.028Z,101284.31
2022-12-11T05:25:04.142Z,101287.78
2022-12-11T05:27:05.586Z,101281.72
2022-12-11T05:29:07.068Z,101277.41
2022-12-11T05:31:13.492Z,101280.88
2022-12-11T05:33:14.963Z,101282.63
2022-12-11T05:35:16.461Z,101285.28
2022-12-11T05:37:17.903Z,101281.84
2022-12-11T05:39:19.756Z,101287.09
2022-12-11T05:41:23.675Z,101278.47
2022-12-11T05:43:25.403Z,101286.28
2022-12-11T05:45:26.869Z,101287.16
2022-12-11T05:47:28.311Z,101281.09
2022-12-11T05:49:31.218Z,101281.94
2022-12-11T05:51:34.358Z,101285.44
2022-12-11T05:53:37.274Z,101283.69
2022-12-11T05:55:38.751Z,101281.97
2022-12-11T05:57:40.178Z,101273.31
2022-12-11T05:59:41.673Z,101279.34
2022-12-11T06:01:43.561Z,101276.75
2022-12-11T06:03:45.632Z,101273.34
2022-12-11T06:05:47.108Z,101277.66
2022-12-11T06:07:48.568Z,101268.97
2022-12-11T06:09:50.012Z,101267.22
2022-12-11T06:11:51.495Z,101272.41
2022-12-11T06:13:53.126Z,101271.47
2022-12-11T06:15:54.814Z,101265.44
2022-12-11T06:17:56.279Z,101273.22
2022-12-11T06:19:57.713Z,101268.13
2022-12-11T06:21:59.239Z,101263.78
2022-12-11T06:24:03.177Z,101274.06
2022-12-11T06:26:04.901Z,101264.53
2022-12-11T06:28:06.462Z,101258.44
2022-12-11T06:30:08.675Z,101257.56
2022-12-11T06:32:10.406Z,101261.84
2022-12-11T06:34:13.699Z,101266.13
2022-12-11T06:36:21.474Z,101265.25
2022-12-11T06:38:23.543Z,101270.41
2022-12-11T06:40:25.059Z,101272.13
2022-12-11T06:42:26.483Z,101277.34
2022-12-11T06:44:28.145Z,101273.91
2022-12-11T06:46:29.627Z,101278.28
2022-12-11T06:48:31.345Z,101283.44
2022-12-11T06:50:33.125Z,101286.81
2022-12-11T06:52:34.680Z,101275.56
2022-12-11T06:54:36.386Z,101280.75
2022-12-11T06:56:37.835Z,101276.44
2022-12-11T06:58:40.201Z,101279.09
2022-12-11T07:00:41.767Z,101273.06
2022-12-11T07:02:43.226Z,101275.59
2022-12-11T07:04:44.746Z,101274.53
2022-12-11T07:06:47.453Z,101272.69
2022-12-11T07:08:49.165Z,101277.03
2022-12-11T07:10:50.655Z,101280.56
2022-12-11T07:12:55.047Z,101278.88
2022-12-11T07:14:56.518Z,101280.56
2022-12-11T07:16:58.194Z,101273.44
2022-12-11T07:19:00.667Z,101282.94
2022-12-11T07:21:02.233Z,101275.97
2022-12-11T07:23:03.710Z,101282.09
2022-12-11T07:25:05.553Z,101280.31
2022-12-11T07:27:06.993Z,101282.06
2022-12-11T07:29:08.506Z,101284.56
2022-12-11T07:31:15.898Z,101284.63
2022-12-11T07:33:17.414Z,101285.56
2022-12-11T07:35:18.939Z,101276.94
2022-12-11T07:37:20.379Z,101279.56
2022-12-11T07:39:21.811Z,101278.69
2022-12-11T07:41:23.465Z,101276.91
2022-12-11T07:43:24.895Z,101281.25
2022-12-11T07:45:26.588Z,101282.09
2022-12-11T07:47:28.056Z,101286.28
2022-12-11T07:49:29.587Z,101293.22
2022-12-11T07:51:33.025Z,101289.03
2022-12-11T07:53:34.476Z,101278.66
2022-12-11T07:55:35.966Z,101284.75
2022-12-11T07:57:37.431Z,101271.84
2022-12-11T07:59:38.910Z,101277.94
2022-12-11T08:01:40.887Z,101278.81
2022-12-11T08:03:42.578Z,101282.31
2022-12-11T08:05:49.981Z,101281.47
2022-12-11T08:07:51.450Z,101279.78
2022-12-11T08:09:52.945Z,101277.97
2022-12-11T08:11:54.402Z,101280.56
2022-12-11T08:13:56.366Z,101278.78
2022-12-11T08:15:58.313Z,101284.88
2022-12-11T08:17:59.960Z,101284.91
2022-12-11T08:20:01.405Z,101282.31
2022-12-11T08:22:03.628Z,101285.72
2022-12-11T08:24:05.182Z,101292.66
2022-12-11T08:26:10.198Z,101287.50
2022-12-11T08:28:11.634Z,101293.50
2022-12-11T08:30:13.467Z,101284.88
2022-12-11T08:32:16.756Z,101298.72
2022-12-11T08:34:18.305Z,101294.41
2022-12-11T08:36:21.237Z,101293.69
2022-12-11T08:38:25.549Z,101294.69
2022-12-11T08:40:27.266Z,101301.66
2022-12-11T08:42:28.699Z,101299.06
2022-12-11T08:44:30.229Z,101303.47
2022-12-11T08:46:32.676Z,101300.06
2022-12-11T08:48:35.464Z,101310.50
2022-12-11T08:50:37.265Z,101297.47
2022-12-11T08:52:38.729Z,101309.63
2022-12-11T08:54:40.355Z,101309.63
2022-12-11T08:56:41.813Z,101306.16
2022-12-11T08:58:44.668Z,101306.19
2022-12-11T09:00:46.277Z,101312.25
2022-12-11T09:02:48.354Z,101307.88
2022-12-11T09:04:50.543Z,101308.72
2022-12-11T09:06:51.999Z,101301.81
2022-12-11T09:08:54.633Z,101296.69
2022-12-11T09:10:56.074Z,101302.78
2022-12-11T09:12:57.524Z,101302.00
2022-12-11T09:14:58.970Z,101303.75
2022-12-11T09:17:00.446Z,101302.97
2022-12-11T09:19:01.883Z,101303.78
2022-12-11T09:21:17.895Z,101307.25
2022-12-11T09:23:19.331Z,101302.81
2022-12-11T09:25:20.892Z,101302.81
2022-12-11T09:27:22.369Z,101303.63
2022-12-11T09:29:23.910Z,101289.84
2022-12-11T09:31:28.260Z,101295.97
2022-12-11T09:33:29.690Z,101296.91
2022-12-11T09:35:31.134Z,101303.88
2022-12-11T09:37:34.017Z,101296.97
2022-12-11T09:39:35.496Z,101289.19
2022-12-11T09:41:50.034Z,101293.56
2022-12-11T09:44:18.370Z,101289.28
2022-12-11T09:46:23.613Z,101289.22
2022-12-11T09:48:26.594Z,101283.13
2022-12-11T09:50:32.876Z,101281.47
2022-12-11T09:53:02.530Z,101285.78
2022-12-11T09:55:15.488Z,101292.72
2022-12-11T09:57:28.997Z,101286.53
2022-12-11T10:00:02.719Z,101277.03
2022-12-11T10:02:22.525Z,101280.41
2022-12-11T10:04:26.721Z,101284.75
2022-12-11T10:06:32.541Z,101281.28
2022-12-11T10:08:44.863Z,101284.50
2022-12-11T10:11:30.589Z,101283.44
2022-12-11T10:13:48.315Z,101280.06
2022-12-11T10:16:19.101Z,101282.72
2022-12-11T10:18:23.452Z,101280.81
2022-12-11T10:20:31.739Z,101283.31
2022-12-11T10:22:34.711Z,101280.63
2022-12-11T10:25:11.568Z,101287.34
2022-12-11T10:27:26.716Z,101282.09
2022-12-11T10:29:28.397Z,101276.22
2022-12-11T10:31:45.081Z,101273.84
2022-12-11T10:34:15.232Z,101276.50
2022-12-11T10:36:25.216Z,101270.31
2022-12-11T10:38:32.319Z,101266.00
2022-12-11T10:40:36.268Z,101270.50
2022-12-11T10:42:41.273Z,101271.56
2022-12-11T10:44:58.241Z,101272.53
2022-12-11T10:47:04.601Z,101276.09
2022-12-11T10:49:06.034Z,101270.13
2022-12-11T10:51:07.956Z,101267.63
2022-12-11T10:53:21.123Z,101257.28
2022-12-11T10:55:27.378Z,101256.41
2022-12-11T10:57:32.537Z,101252.09
2022-12-11T10:59:43.939Z,101250.47
2022-12-11T11:01:46.711Z,101252.28
2022-12-11T11:04:06.933Z,101249.81
2022-12-11T11:06:20.151Z,101246.44
2022-12-11T11:08:25.283Z,101246.50
2022-12-11T11:10:27.255Z,101245.59
2022-12-11T11:12:28.817Z,101243.84
2022-12-11T11:14:30.381Z,101240.44
2022-12-11T11:16:34.935Z,101237.94
2022-12-11T11:18:36.541Z,101237.19
2022-12-11T11:20:46.483Z,101242.44
2022-12-11T11:22:52.343Z,101235.56
2022-12-11T11:24:59.047Z,101233.91
2022-12-11T11:27:16.486Z,101236.50
2022-12-11T11:29:37.759Z,101225.28
2022-12-11T11:31:39.330Z,101226.03
2022-12-11T11:33:56.016Z,101219.06
2022-12-11T11:36:02.455Z,101219.84
2022-12-11T11:38:09.636Z,101221.56
2022-12-11T11:40:33.308Z,101224.88
2022-12-11T11:42:45.595Z,101218.63
2022-12-11T11:44:59.808Z,101218.50
2022-12-11T11:47:09.046Z,101218.50
2022-12-11T11:49:24.262Z,101214.91
2022-12-11T11:51:41.683Z,101218.28
2022-12-11T11:53:49.492Z,101213.88
2022-12-11T11:56:03.223Z,101223.41
2022-12-11T11:58:17.362Z,101222.75
2022-12-11T12:00:21.362Z,101227.28
2022-12-11T12:02:22.897Z,101230.81
2022-12-11T12:04:28.478Z,101231.72
2022-12-11T12:07:07.247Z,101228.28
2022-12-11T12:09:09.194Z,101223.84
2022-12-11T12:11:13.300Z,101223.97
2022-12-11T12:13:48.541Z,101216.31
2022-12-11T12:16:43.779Z,101225.81
2022-12-11T12:18:57.972Z,101219.81
2022-12-11T12:21:00.120Z,101229.47
2022-12-11T12:23:20.078Z,101226.75
2022-12-11T12:25:30.328Z,101223.97
2022-12-11T12:27:57.839Z,101222.97
2022-12-11T12:30:03.832Z,101220.50
2022-12-11T12:32:16.237Z,101217.91
2022-12-11T12:34:39.419Z,101219.75
2022-12-11T12:36:50.067Z,101219.94
2022-12-11T12:39:28.258Z,101214.84
2022-12-11T12:42:08.328Z,101220.88
2022-12-11T12:44:17.723Z,101217.44
2022-12-11T12:46:37.426Z,101219.94
2022-12-11T12:48:39.179Z,101217.44
2022-12-11T12:50:45.059Z,101219.19
2022-12-11T12:52:48.742Z,101217.50
2022-12-11T12:55:12.967Z,101220.19
2022-12-11T12:57:14.695Z,101221.13
2022-12-11T12:59:24.793Z,101222.06
2022-12-11T13:01:28.774Z,101221.22
2022-12-11T13:03:35.543Z,101219.53
2022-12-11T13:05:40.846Z,101221.31
2022-12-11T13:07:54.206Z,101221.41
2022-12-11T13:09:58.650Z,101219.69
2022-12-11T13:12:00.165Z,101223.88
2022-12-11T13:14:22.086Z,101223.91
2022-12-11T13:16:26.559Z,101216.19
2022-12-11T13:18:39.292Z,101213.69
2022-12-11T13:20:51.086Z,101209.44
2022-12-11T13:23:07.577Z,101205.16
2022-12-11T13:25:25.954Z,101213.91
2022-12-11T13:27:40.755Z,101214.78
2022-12-11T13:29:42.775Z,101216.53
2022-12-11T13:31:45.544Z,101215.66
2022-12-11T13:33:53.382Z,101221.72
2022-12-11T13:36:22.916Z,101219.09
2022-12-11T13:38:26.182Z,101218.06
2022-12-11T13:40:33.312Z,101220.69
2022-12-11T13:42:44.164Z,101223.25
2022-12-11T13:44:48.459Z,101226.53
2022-12-11T13:46:52.271Z,101226.50
2022-12-11T13:49:00.776Z,101229.16
2022-12-11T13:51:03.705Z,101224.00
2022-12-11T13:53:05.450Z,101229.97
2022-12-11T13:55:21.720Z,101235.81
2022-12-11T13:57:25.886Z,101233.13
2022-12-11T13:59:40.973Z,101238.22
2022-12-11T14:01:42.538Z,101228.69
2022-12-11T14:03:54.602Z,101229.53
2022-12-11T14:05:56.276Z,101226.88
2022-12-11T14:08:02.832Z,101228.69
2022-12-11T14:10:29.925Z,101223.59
2022-12-11T14:12:32.767Z,101232.25
2022-12-11T14:14:42.699Z,101231.41
2022-12-11T14:16:48.186Z,101222.81
2022-12-11T14:18:51.989Z,101227.16
2022-12-11T14:20:55.909Z,101232.34
2022-12-11T14:23:24.075Z,101228.84
2022-12-11T14:25:27.503Z,101232.28
2022-12-11T14:27:29.680Z,101227.13
2022-12-11T14:29:33.217Z,101233.19
2022-12-11T14:31:39.967Z,101228.88
2022-12-11T14:33:47.522Z,101240.19
2022-12-11T14:35:50.507Z,101229.75
2022-12-11T14:37:53.054Z,101227.94
2022-12-11T14:40:24.147Z,101226.13
2022-12-11T14:42:32.462Z,101226.09
2022-12-11T14:44:49.103Z,101223.53
2022-12-11T14:46:55.422Z,101215.72
2022-12-11T14:49:01.817Z,101226.94
2022-12-11T14:51:07.562Z,101232.13
2022-12-11T14:53:15.479Z,101231.25
2022-12-11T14:55:24.326Z,101226.91
2022-12-11T14:57:30.606Z,101228.66
2022-12-11T14:59:41.272Z,101232.06
2022-12-11T15:01:42.851Z,101234.59
2022-12-11T15:03:44.618Z,101229.41
2022-12-11T15:05:56.735Z,101228.47
2022-12-11T15:08:24.410Z,101231.91
2022-12-11T15:10:36.904Z,101233.47
2022-12-11T15:12:45.353Z,101227.41
2022-12-11T15:14:51.484Z,101225.63
2022-12-11T15:16:56.278Z,101229.06
2022-12-11T15:19:01.543Z,101230.84
2022-12-11T15:21:09.989Z,101237.84
2022-12-11T15:23:18.680Z,101235.41
2022-12-11T15:25:22.901Z,101241.59
2022-12-11T15:27:30.801Z,101237.41
2022-12-11T15:29:38.361Z,101240.97
2022-12-11T15:31:39.933Z,101234.13
2022-12-11T15:33:48.010Z,101241.13
2022-12-11T15:35:53.705Z,101240.31
2022-12-11T15:37:57.513Z,101251.59
2022-12-11T15:40:01.501Z,101259.41
2022-12-11T15:42:03.063Z,101255.06
2022-12-11T15:44:04.984Z,101248.09
2022-12-11T15:46:07.271Z,101253.25
2022-12-11T15:48:11.328Z,101247.91
2022-12-11T15:50:27.154Z,101249.53
2022-12-11T15:52:28.825Z,101253.78
2022-12-11T15:54:30.298Z,101259.78
2022-12-11T15:56:31.944Z,101254.59
2022-12-11T15:58:33.429Z,101252.94
2022-12-11T16:00:35.183Z,101259.03
2022-12-11T16:02:36.643Z,101262.53
2022-12-11T16:04:38.315Z,101263.41
2022-12-11T16:06:45.207Z,101263.47
2022-12-11T16:08:46.839Z,101269.56
2022-12-11T16:10:48.762Z,101260.97
2022-12-11T16:12:50.348Z,101264.44
2022-12-11T16:14:51.943Z,101259.28
2022-12-11T16:16:53.441Z,101264.50
2022-12-11T16:18:54.898Z,101252.34
2022-12-11T16:20:56.361Z,101248.03
2022-12-11T16:22:59.232Z,101252.38
2022-12-11T16:25:00.763Z,101246.31
2022-12-11T16:27:03.190Z,101248.88
2022-12-11T16:29:04.648Z,101248.91
2022-12-11T16:31:14.349Z,101251.50
2022-12-11T16:33:16.370Z,101256.69
2022-12-11T16:35:18.743Z,101249.78
2022-12-11T16:37:20.406Z,101256.69
2022-12-11T16:39:21.825Z,101261.88
2022-12-11T16:41:23.983Z,101261.00
2022-12-11T16:43:25.519Z,101266.19
2022-12-11T16:45:27.341Z,101264.44
2022-12-11T16:47:30.337Z,101257.50
2022-12-11T16:49:32.234Z,101262.66
2022-12-11T16:51:33.882Z,101258.28
2022-12-11T16:53:35.403Z,101260.88
2022-12-11T16:55:39.547Z,101252.22
2022-12-11T16:57:41.516Z,101246.13
2022-12-11T16:59:43.465Z,101254.75
2022-12-11T17:01:45.836Z,101247.81
2022-12-11T17:03:47.451Z,101252.97
2022-12-11T17:05:48.879Z,101253.84
2022-12-11T17:07:50.562Z,101254.72
2022-12-11T17:09:52.031Z,101251.28
2022-12-11T17:11:53.777Z,101257.28
2022-12-11T17:13:56.757Z,101252.94
2022-12-11T17:15:58.326Z,101257.22
2022-12-11T17:17:59.818Z,101254.63
2022-12-11T17:20:01.338Z,101263.25
2022-12-11T17:22:03.489Z,101261.56
2022-12-11T17:24:05.266Z,101261.56
2022-12-11T17:26:08.775Z,101265.03
2022-12-11T17:28:11.399Z,101257.19
2022-12-11T17:30:14.177Z,101262.41
2022-12-11T17:32:16.749Z,101258.06
2022-12-11T17:34:18.234Z,101260.66
2022-12-11T17:36:21.787Z,101264.13
2022-12-11T17:38:23.238Z,101263.25
2022-12-11T17:40:24.877Z,101254.63
2022-12-11T17:42:26.541Z,101261.56
2022-12-11T17:44:30.678Z,101251.16
2022-12-11T17:46:32.300Z,101258.84
2022-12-11T17:48:34.111Z,101264.88
2022-12-11T17:50:43.768Z,101272.66
2022-12-11T17:52:45.222Z,101263.09
2022-12-11T17:54:46.694Z,101263.13
2022-12-11T17:56:48.295Z,101260.50
2022-12-11T17:58:49.990Z,101264.81
2022-12-11T18:00:54.442Z,101257.84
2022-12-11T18:02:55.891Z,101262.91
2022-12-11T18:04:57.313Z,101262.00
2022-12-11T18:06:58.785Z,101261.06
2022-12-11T18:09:00.227Z,101260.09
2022-12-11T18:11:07.446Z,101263.47
2022-12-11T18:13:09.713Z,101259.06
2022-12-11T18:15:11.745Z,101260.72
2022-12-11T18:17:13.411Z,101255.44
2022-12-11T18:19:15.761Z,101257.88
2022-12-11T18:21:21.596Z,101257.75
2022-12-11T18:23:23.445Z,101254.16
2022-12-11T18:25:24.941Z,101258.41
2022-12-11T18:27:26.601Z,101256.63
2022-12-11T18:29:28.687Z,101258.28
2022-12-11T18:31:30.338Z,101253.88
2022-12-11T18:33:32.229Z,101252.03
2022-12-11T18:35:33.747Z,101251.09
2022-12-11T18:37:35.961Z,101251.88
2022-12-11T18:39:37.416Z,101251.69
2022-12-11T18:41:39.070Z,101251.66
2022-12-11T18:43:41.484Z,101248.06
2022-12-11T18:45:45.120Z,101252.19
2022-12-11T18:47:47.257Z,101243.47
2022-12-11T18:49:48.777Z,101244.25
2022-12-11T18:51:50.319Z,101240.75
2022-12-11T18:53:52.505Z,101241.56
2022-12-11T18:56:00.025Z,101237.19
2022-12-11T18:58:01.834Z,101233.53
2022-12-11T19:00:07.465Z,101233.47
2022-12-11T19:02:10.971Z,101233.44
2022-12-11T19:04:13.442Z,101236.00
2022-12-11T19:06:18.623Z,101234.25
2022-12-11T19:08:21.121Z,101244.56
2022-12-11T19:10:22.767Z,101243.63
2022-12-11T19:12:24.339Z,101246.13
2022-12-11T19:14:25.869Z,101252.94
2022-12-11T19:16:30.244Z,101260.59
2022-12-11T19:18:31.930Z,101257.06
2022-12-11T19:21:00.461Z,101267.34
2022-12-11T19:22:58.415Z,101257.69
2022-12-11T19:25:00.486Z,101271.44
2022-12-11T19:27:02.064Z,101263.63
2022-12-11T19:29:03.840Z,101267.91
2022-12-11T19:31:12.161Z,101270.50
2022-12-11T19:33:13.879Z,101275.59
2022-12-11T19:35:16.719Z,101272.06
2022-12-11T19:37:18.671Z,101267.63
2022-12-11T19:39:20.636Z,101270.19
2022-12-11T19:41:27.131Z,101262.31
2022-12-11T19:43:28.596Z,101265.72
2022-12-11T19:45:30.081Z,101260.44
2022-12-11T19:47:32.172Z,101268.13
2022-12-11T19:49:33.817Z,101269.00
2022-12-11T19:51:41.010Z,101271.50
2022-12-11T19:53:43.504Z,101275.81
2022-12-11T19:55:52.943Z,101276.66
2022-12-11T19:57:55.665Z,101272.31
2022-12-11T19:59:57.564Z,101273.94
2022-12-11T20:01:59.186Z,101275.59
2022-12-11T20:04:04.099Z,101272.97
2022-12-11T20:06:07.995Z,101276.34
2022-12-11T20:08:42.519Z,101271.09
2022-12-11T20:10:31.009Z,101271.00
2022-12-11T20:12:32.672Z,101278.75
2022-12-11T20:14:34.124Z,101279.53
2022-12-11T20:17:09.276Z,101286.44
2022-12-11T20:18:58.507Z,101274.25
2022-12-11T20:21:01.145Z,101277.69
2022-12-11T20:23:02.711Z,101263.88
2022-12-11T20:25:04.653Z,101262.97
2022-12-11T20:27:06.231Z,101264.69
2022-12-11T20:29:08.406Z,101264.63
2022-12-11T20:31:19.727Z,101265.47
2022-12-11T20:33:22.435Z,101267.97
2022-12-11T20:35:26.312Z,101273.91
2022-12-11T20:37:29.069Z,101274.66
2022-12-11T20:39:31.960Z,101270.19
2022-12-11T20:41:33.613Z,101272.75
2022-12-11T20:43:35.347Z,101270.97
2022-12-11T20:45:36.904Z,101271.81
2022-12-11T20:47:38.370Z,101277.00
2022-12-11T20:49:40.428Z,101281.25
2022-12-11T20:51:42.093Z,101289.81
2022-12-11T20:53:43.672Z,101288.06
2022-12-11T20:55:45.124Z,101289.78
2022-12-11T20:57:46.591Z,101286.28
2022-12-11T20:59:49.461Z,101282.81
2022-12-11T21:01:51.046Z,101284.50
2022-12-11T21:03:53.534Z,101282.72
2022-12-11T21:05:55.088Z,101287.00
2022-12-11T21:07:56.935Z,101295.66
2022-12-11T21:09:58.461Z,101291.25
2022-12-11T21:12:01.547Z,101287.84
2022-12-11T21:14:03.852Z,101289.53
2022-12-11T21:16:07.203Z,101292.13
2022-12-11T21:18:08.903Z,101295.53
2022-12-11T21:20:10.855Z,101296.38
2022-12-11T21:22:12.534Z,101304.13
2022-12-11T21:24:21.064Z,101303.25
2022-12-11T21:26:22.714Z,101301.50
2022-12-11T21:28:24.261Z,101302.38
2022-12-11T21:30:25.708Z,101304.97
2022-12-11T21:32:29.881Z,101304.13
2022-12-11T21:34:31.389Z,101300.63
2022-12-11T21:36:33.473Z,101295.47
2022-12-11T21:38:35.048Z,101297.94
2022-12-11T21:40:36.542Z,101298.78
2022-12-11T21:42:37.986Z,101301.31
2022-12-11T21:47:00.917Z,101302.09
2022-12-11T21:49:02.438Z,101294.34
2022-12-11T21:51:08.508Z,101298.63
2022-12-11T21:53:10.025Z,101301.22
2022-12-11T21:55:12.619Z,101298.69
2022-12-11T21:57:14.413Z,101298.69
2022-12-11T21:59:15.955Z,101300.44
2022-12-11T22:01:21.546Z,101303.06
2022-12-11T22:03:23.135Z,101305.69
2022-12-11T22:05:24.699Z,101306.56
2022-12-11T22:07:26.570Z,101308.34
2022-12-11T22:09:28.006Z,101305.75
2022-12-11T22:11:32.823Z,101304.91
2022-12-11T22:13:34.314Z,101305.75
2022-12-11T22:15:35.795Z,101304.00
2022-12-11T22:17:37.304Z,101307.41
2022-12-11T22:19:38.744Z,101311.66
2022-12-11T22:21:40.372Z,101307.22
2022-12-11T22:23:42.769Z,101305.38
2022-12-11T22:25:44.202Z,101306.25
2022-12-11T22:27:45.639Z,101309.66
2022-12-11T22:29:47.132Z,101307.06
2022-12-11T22:31:48.685Z,101303.59
2022-12-11T22:33:53.730Z,101309.56
2022-12-11T22:35:59.722Z,101316.47
2022-12-11T22:38:01.556Z,101310.47
2022-12-11T22:40:04.244Z,101312.28
2022-12-11T22:42:05.693Z,101314.09
2022-12-11T22:44:07.845Z,101318.47
2022-12-11T22:46:15.823Z,101307.25
2022-12-11T22:48:17.362Z,101306.38
2022-12-11T22:50:18.957Z,101307.16
2022-12-11T22:52:20.417Z,101308.81
2022-12-11T22:54:21.861Z,101309.72
2022-12-11T22:56:23.363Z,101306.25
2022-12-11T22:58:24.801Z,101306.28
2022-12-11T23:00:26.330Z,101314.00
2022-12-11T23:02:27.843Z,101319.16
2022-12-11T23:04:29.301Z,101315.66
2022-12-11T23:06:30.941Z,101318.16
2022-12-11T23:08:33.135Z,101310.16
2022-12-11T23:10:35.058Z,101311.75
2022-12-11T23:12:37.041Z,101310.00
2022-12-11T23:14:38.514Z,101306.56
2022-12-11T23:16:40.054Z,101304.78
2022-12-11T23:18:41.658Z,101303.03
2022-12-11T23:20:43.166Z,101306.44
2022-12-11T23:22:44.622Z,101304.66
2022-12-11T23:24:46.124Z,101305.41
2022-12-11T23:26:48.116Z,101311.41
2022-12-11T23:28:50.096Z,101311.38
2022-12-11T23:30:51.681Z,101308.69
2022-12-11T23:32:53.155Z,101307.72
2022-12-11T23:34:54.659Z,101305.03
2022-12-11T23:36:56.119Z,101304.09
2022-12-11T23:38:57.632Z,101307.50
2022-12-11T23:41:00.624Z,101310.88
2022-12-11T23:43:02.108Z,101312.50
2022-12-11T23:45:03.872Z,101310.72
2022-12-11T23:47:05.677Z,101307.19
2022-12-11T23:49:07.114Z,101304.50
2022-12-11T23:51:13.101Z,101310.47